createdAt,value
2018-07-01T00:01:30.233Z,14.60
2018-07-01T00:04:06.379Z,14.50
2018-07-01T00:06:43.580Z,14.50
2018-07-01T00:09:20.103Z,14.40
2018-07-01T00:11:57.256Z,14.40
2018-07-01T00:14:34.052Z,14.40
2018-07-01T00:17:10.930Z,14.40
2018-07-01T00:19:47.660Z,14.40
2018-07-01T00:22:23.653Z,14.30
2018-07-01T00:25:01.392Z,14.30
2018-07-01T00:27:37.958Z,14.30
2018-07-01T00:30:14.940Z,14.30
2018-07-01T00:32:52.032Z,14.30
2018-07-01T00:35:28.929Z,14.30
2018-07-01T00:38:05.547Z,14.30
2018-07-01T00:40:41.780Z,14.40
2018-07-01T00:43:19.041Z,14.30
2018-07-01T00:45:57.264Z,14.30
2018-07-01T00:48:33.711Z,14.30
2018-07-01T00:51:10.983Z,14.30
2018-07-01T00:53:47.672Z,14.20
2018-07-01T00:56:23.981Z,14.20
2018-07-01T01:01:39.444Z,14.10
2018-07-01T01:04:16.752Z,14.00
2018-07-01T01:06:54.214Z,14.00
2018-07-01T01:09:30.577Z,13.90
2018-07-01T01:12:08.829Z,13.80
2018-07-01T01:14:45.796Z,13.70
2018-07-01T01:17:23.205Z,13.80
2018-07-01T01:20:01.264Z,13.70
2018-07-01T01:22:38.580Z,13.60
2018-07-01T01:25:15.421Z,13.60
2018-07-01T01:27:51.641Z,13.50
2018-07-01T01:30:28.929Z,13.50
2018-07-01T01:33:06.323Z,13.50
2018-07-01T01:35:43.354Z,12.70
2018-07-01T01:38:22.404Z,13.50
2018-07-01T01:41:04.932Z,13.50
2018-07-01T01:46:28.103Z,13.50
2018-07-01T01:49:09.614Z,13.50
2018-07-01T01:51:49.727Z,13.50
2018-07-01T01:54:39.316Z,13.50
2018-07-01T01:57:19.568Z,13.50
2018-07-01T02:00:05.475Z,13.60
2018-07-01T02:02:47.969Z,13.50
2018-07-01T02:05:33.087Z,13.50
2018-07-01T02:08:15.543Z,13.40
2018-07-01T02:10:54.175Z,13.30
2018-07-01T02:13:33.721Z,13.20
2018-07-01T02:16:14.878Z,13.20
2018-07-01T02:18:51.328Z,13.20
2018-07-01T02:21:27.950Z,13.10
2018-07-01T02:24:14.012Z,13.10
2018-07-01T02:26:51.600Z,13.00
2018-07-01T02:32:07.318Z,12.80
2018-07-01T02:34:44.406Z,12.80
2018-07-01T02:37:20.583Z,12.70
2018-07-01T02:39:57.793Z,12.70
2018-07-01T02:42:33.952Z,12.60
2018-07-01T02:45:10.660Z,12.60
2018-07-01T02:47:46.953Z,12.50
2018-07-01T02:53:01.981Z,12.40
2018-07-01T02:55:39.214Z,12.30
2018-07-01T02:58:17.597Z,12.40
2018-07-01T03:03:32.546Z,12.40
2018-07-01T03:06:10.358Z,12.30
2018-07-01T03:08:48.458Z,12.30
2018-07-01T03:11:25.571Z,12.30
2018-07-01T03:14:03.158Z,12.30
2018-07-01T03:16:40.786Z,12.30
2018-07-01T03:19:17.952Z,12.30
2018-07-01T03:21:54.550Z,12.20
2018-07-01T03:24:31.731Z,12.20
2018-07-01T03:27:08.339Z,12.10
2018-07-01T03:29:45.849Z,12.10
2018-07-01T03:32:22.664Z,12.10
2018-07-01T03:34:59.854Z,12.00
2018-07-01T03:37:37.885Z,12.00
2018-07-01T03:40:15.425Z,12.00
2018-07-01T03:42:51.613Z,12.00
2018-07-01T03:45:27.880Z,12.00
2018-07-01T03:48:04.562Z,12.10
2018-07-01T03:50:41.616Z,12.10
2018-07-01T03:53:17.750Z,12.10
2018-07-01T03:55:53.850Z,12.10
2018-07-01T03:58:30.605Z,12.00
2018-07-01T04:01:09.228Z,12.00
2018-07-01T04:03:46.139Z,12.00
2018-07-01T04:06:22.979Z,12.00
2018-07-01T04:08:59.046Z,12.00
2018-07-01T04:11:36.938Z,12.00
2018-07-01T04:16:51.924Z,12.10
2018-07-01T04:19:36.200Z,12.10
2018-07-01T04:22:12.631Z,12.00
2018-07-01T04:24:50.163Z,12.10
2018-07-01T04:27:27.584Z,12.20
2018-07-01T04:30:06.947Z,12.30
2018-07-01T04:32:44.604Z,12.30
2018-07-01T04:35:21.884Z,12.40
2018-07-01T04:37:59.408Z,12.50
2018-07-01T04:40:37.208Z,12.70
2018-07-01T04:43:14.372Z,13.00
2018-07-01T04:45:51.324Z,13.20
2018-07-01T04:48:29.515Z,13.30
2018-07-01T04:51:06.909Z,13.40
2018-07-01T04:53:44.698Z,13.50
2018-07-01T04:56:21.806Z,13.40
2018-07-01T04:59:00.731Z,13.60
2018-07-01T05:01:38.837Z,13.70
2018-07-01T05:04:16.066Z,13.80
2018-07-01T05:06:53.190Z,14.00
2018-07-01T05:09:32.820Z,14.00
2018-07-01T05:12:09.342Z,14.10
2018-07-01T05:14:46.706Z,14.20
2018-07-01T05:17:23.650Z,14.30
2018-07-01T05:20:00.328Z,14.30
2018-07-01T05:22:36.842Z,14.90
2018-07-01T05:25:14.209Z,15.90
2018-07-01T05:27:51.241Z,16.40
2018-07-01T05:30:27.523Z,16.20
2018-07-01T05:33:04.101Z,16.20
2018-07-01T05:35:40.161Z,16.50
2018-07-01T05:38:18.069Z,16.80
2018-07-01T05:40:56.283Z,16.50
2018-07-01T05:43:34.039Z,16.00
2018-07-01T05:46:11.586Z,15.70
2018-07-01T05:48:49.226Z,15.50
2018-07-01T05:51:26.398Z,15.30
2018-07-01T05:54:03.829Z,15.30
2018-07-01T05:56:39.624Z,15.50
2018-07-01T05:59:16.881Z,15.60
2018-07-01T06:01:56.045Z,16.00
2018-07-01T06:04:34.495Z,16.10
2018-07-01T06:07:11.860Z,15.90
2018-07-01T06:09:49.742Z,15.80
2018-07-01T06:12:27.197Z,15.70
2018-07-01T06:15:04.424Z,15.70
2018-07-01T06:17:42.411Z,16.00
2018-07-01T06:20:19.788Z,16.30
2018-07-01T06:22:56.863Z,16.40
2018-07-01T06:25:33.377Z,16.40
2018-07-01T06:28:10.553Z,16.20
2018-07-01T06:30:48.901Z,16.00
2018-07-01T06:33:26.118Z,16.00
2018-07-01T06:36:02.287Z,16.10
2018-07-01T06:38:38.920Z,16.10
2018-07-01T06:41:15.612Z,16.20
2018-07-01T06:43:53.490Z,16.40
2018-07-01T06:46:31.034Z,16.50
2018-07-01T06:49:07.732Z,16.70
2018-07-01T06:51:45.891Z,16.70
2018-07-01T06:54:22.204Z,16.80
2018-07-01T06:56:59.866Z,16.90
2018-07-01T06:59:36.917Z,17.20
2018-07-01T07:02:13.577Z,17.40
2018-07-01T07:04:52.000Z,17.50
2018-07-01T07:07:29.700Z,17.70
2018-07-01T07:10:07.776Z,18.10
2018-07-01T07:12:44.852Z,18.00
2018-07-01T07:15:22.829Z,18.10
2018-07-01T07:17:59.120Z,18.10
2018-07-01T07:20:35.511Z,18.20
2018-07-01T07:23:12.878Z,18.20
2018-07-01T07:25:50.277Z,18.20
2018-07-01T07:28:27.135Z,18.30
2018-07-01T07:31:04.988Z,18.40
2018-07-01T07:33:42.189Z,18.40
2018-07-01T07:36:18.964Z,18.60
2018-07-01T07:38:56.941Z,18.80
2018-07-01T07:41:35.020Z,18.80
2018-07-01T07:44:11.284Z,18.90
2018-07-01T07:46:48.552Z,18.90
2018-07-01T07:49:24.904Z,19.00
2018-07-01T07:52:01.609Z,19.10
2018-07-01T07:54:39.794Z,19.30
2018-07-01T07:57:17.432Z,19.40
2018-07-01T07:59:54.147Z,19.50
2018-07-01T08:02:31.296Z,20.30
2018-07-01T08:05:09.233Z,21.50
2018-07-01T08:07:46.813Z,23.10
2018-07-01T08:10:23.933Z,24.90
2018-07-01T08:13:01.213Z,26.70
2018-07-01T08:15:38.690Z,27.50
2018-07-01T08:18:16.122Z,28.00
2018-07-01T08:20:54.648Z,27.00
2018-07-01T08:23:31.646Z,24.80
2018-07-01T08:26:08.970Z,25.20
2018-07-01T08:28:46.539Z,26.70
2018-07-01T08:31:24.633Z,28.50
2018-07-01T08:34:00.964Z,29.50
2018-07-01T08:36:39.074Z,29.30
2018-07-01T08:39:15.518Z,29.00
2018-07-01T08:42:32.240Z,29.50
2018-07-01T08:45:10.298Z,29.40
2018-07-01T08:47:53.776Z,28.50
2018-07-01T08:50:32.273Z,28.80
2018-07-01T08:53:09.597Z,28.80
2018-07-01T08:55:46.435Z,29.80
2018-07-01T08:58:25.816Z,29.40
2018-07-01T09:01:02.838Z,28.80
2018-07-01T09:03:40.786Z,27.00
2018-07-01T09:06:17.668Z,25.80
2018-07-01T09:08:54.059Z,24.90
2018-07-01T09:11:31.779Z,25.80
2018-07-01T09:14:10.159Z,28.00
2018-07-01T09:16:47.196Z,29.50
2018-07-01T09:19:25.681Z,30.20
2018-07-01T09:22:02.907Z,31.00
2018-07-01T09:24:41.717Z,30.90
2018-07-01T09:27:19.487Z,31.00
2018-07-01T09:30:03.850Z,30.70
2018-07-01T09:32:40.086Z,30.80
2018-07-01T09:35:18.222Z,30.60
2018-07-01T09:37:55.579Z,31.30
2018-07-01T09:40:33.502Z,31.10
2018-07-01T09:43:10.863Z,31.50
2018-07-01T09:45:47.471Z,31.10
2018-07-01T09:48:23.868Z,30.80
2018-07-01T09:51:02.973Z,31.30
2018-07-01T09:53:40.747Z,31.20
2018-07-01T09:56:19.270Z,30.10
2018-07-01T09:58:57.048Z,29.90
2018-07-01T10:01:35.117Z,29.10
2018-07-01T10:04:13.550Z,28.10
2018-07-01T10:06:53.357Z,28.40
2018-07-01T10:09:31.345Z,29.00
2018-07-01T10:12:08.980Z,28.50
2018-07-01T10:14:46.831Z,26.80
2018-07-01T10:17:24.396Z,26.10
2018-07-01T10:20:03.154Z,26.10
2018-07-01T10:22:39.459Z,25.00
2018-07-01T10:25:16.157Z,23.70
2018-07-01T10:27:54.141Z,23.20
2018-07-01T10:30:32.077Z,22.80
2018-07-01T10:33:09.181Z,21.80
2018-07-01T10:35:46.622Z,21.30
2018-07-01T10:38:23.764Z,22.30
2018-07-01T10:41:00.284Z,23.80
2018-07-01T10:43:37.199Z,23.90
2018-07-01T10:46:14.638Z,22.90
2018-07-01T10:48:53.030Z,22.40
2018-07-01T10:51:30.175Z,21.80
2018-07-01T10:54:08.373Z,21.70
2018-07-01T10:56:47.034Z,22.60
2018-07-01T10:59:24.678Z,24.40
2018-07-01T11:02:02.704Z,25.00
2018-07-01T11:04:40.863Z,25.50
2018-07-01T11:07:18.384Z,24.90
2018-07-01T11:09:55.728Z,23.80
2018-07-01T11:12:33.317Z,23.20
2018-07-01T11:15:11.810Z,22.90
2018-07-01T11:17:48.669Z,23.10
2018-07-01T11:20:25.395Z,23.50
2018-07-01T11:23:02.611Z,23.50
2018-07-01T11:25:38.624Z,23.30
2018-07-01T11:30:52.618Z,23.90
2018-07-01T11:36:06.933Z,25.40
2018-07-01T11:38:43.389Z,26.20
2018-07-01T11:41:20.606Z,26.20
2018-07-01T11:43:57.330Z,25.50
2018-07-01T11:46:35.059Z,24.70
2018-07-01T11:49:11.973Z,24.00
2018-07-01T11:51:48.949Z,23.50
2018-07-01T11:54:27.192Z,22.70
2018-07-01T11:57:04.210Z,23.70
2018-07-01T11:59:41.539Z,25.60
2018-07-01T12:02:20.536Z,27.30
2018-07-01T12:05:16.211Z,28.00
2018-07-01T12:07:36.089Z,28.00
2018-07-01T12:10:11.884Z,28.00
2018-07-01T12:12:47.797Z,26.30
2018-07-01T12:15:25.332Z,25.10
2018-07-01T12:18:01.996Z,24.60
2018-07-01T12:20:40.137Z,23.90
2018-07-01T12:23:17.020Z,23.60
2018-07-01T12:25:53.924Z,23.50
2018-07-01T12:28:30.569Z,23.50
2018-07-01T12:31:07.324Z,24.90
2018-07-01T12:33:44.997Z,26.00
2018-07-01T12:36:23.726Z,25.40
2018-07-01T12:39:00.400Z,24.60
2018-07-01T12:41:39.232Z,24.30
2018-07-01T12:44:17.525Z,23.70
2018-07-01T12:46:54.645Z,23.30
2018-07-01T12:49:31.364Z,23.40
2018-07-01T12:52:09.399Z,23.60
2018-07-01T12:54:46.941Z,23.90
2018-07-01T12:57:24.945Z,23.90
2018-07-01T13:00:01.173Z,24.30
2018-07-01T13:02:39.702Z,25.50
2018-07-01T13:05:19.010Z,27.40
2018-07-01T13:07:56.444Z,29.20
2018-07-01T13:10:34.162Z,30.10
2018-07-01T13:13:11.435Z,29.70
2018-07-01T13:15:47.948Z,29.00
2018-07-01T13:18:26.594Z,28.80
2018-07-01T13:21:04.568Z,29.00
2018-07-01T13:23:42.841Z,29.20
2018-07-01T13:26:20.399Z,28.00
2018-07-01T13:28:58.720Z,27.20
2018-07-01T13:31:35.313Z,27.30
2018-07-01T13:34:13.072Z,27.10
2018-07-01T13:36:53.099Z,26.50
2018-07-01T13:39:30.676Z,26.20
2018-07-01T13:42:09.355Z,25.40
2018-07-01T13:44:50.029Z,25.10
2018-07-01T13:47:28.268Z,24.90
2018-07-01T13:50:06.195Z,24.40
2018-07-01T13:52:42.695Z,24.30
2018-07-01T13:55:19.109Z,24.30
2018-07-01T13:57:55.399Z,24.30
2018-07-01T14:00:31.553Z,24.20
2018-07-01T14:03:08.657Z,24.20
2018-07-01T14:05:47.971Z,24.10
2018-07-01T14:08:25.001Z,23.70
2018-07-01T14:11:01.576Z,23.10
2018-07-01T14:13:39.856Z,23.10
2018-07-01T14:16:19.346Z,23.10
2018-07-01T14:18:56.380Z,23.10
2018-07-01T14:21:33.228Z,23.50
2018-07-01T14:24:12.055Z,23.70
2018-07-01T14:26:51.077Z,23.70
2018-07-01T14:29:28.288Z,24.10
2018-07-01T14:32:06.184Z,24.60
2018-07-01T14:34:43.213Z,25.30
2018-07-01T14:37:21.001Z,26.20
2018-07-01T14:39:58.483Z,26.60
2018-07-01T14:45:16.540Z,26.40
2018-07-01T14:47:54.535Z,25.90
2018-07-01T14:50:31.804Z,25.10
2018-07-01T14:53:09.844Z,24.50
2018-07-01T14:55:47.472Z,24.30
2018-07-01T14:58:25.200Z,23.60
2018-07-01T15:01:03.027Z,23.70
2018-07-01T15:03:40.185Z,23.70
2018-07-01T15:06:16.635Z,23.60
2018-07-01T15:08:54.010Z,23.60
2018-07-01T15:11:30.714Z,23.60
2018-07-01T15:14:07.080Z,24.00
2018-07-01T15:16:45.106Z,24.30
2018-07-01T15:19:22.205Z,24.10
2018-07-01T15:21:58.242Z,24.00
2018-07-01T15:24:37.318Z,24.30
2018-07-01T15:27:14.994Z,24.60
2018-07-01T15:29:53.389Z,24.70
2018-07-01T15:32:30.710Z,24.90
2018-07-01T15:35:07.252Z,23.00
2018-07-01T15:37:45.379Z,24.70
2018-07-01T15:40:22.549Z,24.30
2018-07-01T15:42:59.819Z,23.80
2018-07-01T15:45:37.902Z,23.30
2018-07-01T15:48:15.848Z,23.00
2018-07-01T15:50:53.323Z,22.90
2018-07-01T15:53:30.251Z,23.10
2018-07-01T15:56:07.616Z,23.50
2018-07-01T15:58:44.648Z,23.70
2018-07-01T16:01:21.453Z,23.80
2018-07-01T16:03:58.640Z,23.60
2018-07-01T16:06:36.613Z,23.30
2018-07-01T16:09:13.769Z,22.80
2018-07-01T16:11:52.303Z,22.50
2018-07-01T16:14:29.285Z,22.50
2018-07-01T16:17:06.159Z,22.40
2018-07-01T16:19:42.403Z,22.50
2018-07-01T16:22:20.189Z,22.60
2018-07-01T16:25:01.852Z,22.50
2018-07-01T16:27:42.030Z,22.50
2018-07-01T16:30:19.875Z,22.30
2018-07-01T16:32:58.791Z,22.40
2018-07-01T16:35:36.445Z,22.50
2018-07-01T16:38:14.443Z,22.60
2018-07-01T16:40:51.600Z,22.70
2018-07-01T16:43:29.228Z,22.50
2018-07-01T16:46:06.617Z,22.30
2018-07-01T16:48:43.118Z,22.10
2018-07-01T16:51:20.884Z,21.90
2018-07-01T16:53:58.634Z,21.60
2018-07-01T16:56:36.220Z,21.50
2018-07-01T16:59:12.983Z,21.60
2018-07-01T17:01:49.301Z,21.60
2018-07-01T17:04:25.407Z,21.80
2018-07-01T17:07:03.159Z,21.90
2018-07-01T17:09:41.237Z,22.00
2018-07-01T17:12:19.323Z,22.10
2018-07-01T17:14:56.165Z,22.00
2018-07-01T17:17:32.968Z,22.10
2018-07-01T17:20:10.949Z,22.10
2018-07-01T17:22:47.191Z,22.00
2018-07-01T17:25:24.817Z,21.90
2018-07-01T17:28:02.385Z,21.90
2018-07-01T17:30:39.432Z,21.80
2018-07-01T17:33:23.447Z,21.60
2018-07-01T17:36:01.149Z,21.60
2018-07-01T17:38:37.849Z,21.50
2018-07-01T17:43:53.624Z,21.50
2018-07-01T17:46:31.770Z,21.50
2018-07-01T17:49:09.774Z,21.50
2018-07-01T17:51:51.778Z,21.30
2018-07-01T17:54:32.657Z,21.20
2018-07-01T17:57:10.965Z,21.10
2018-07-01T17:59:48.428Z,20.90
2018-07-01T18:02:26.741Z,20.70
2018-07-01T18:05:04.262Z,20.50
2018-07-01T18:07:40.842Z,20.40
2018-07-01T18:10:18.007Z,20.40
2018-07-01T18:12:55.223Z,20.30
2018-07-01T18:15:34.929Z,20.40
2018-07-01T18:18:11.279Z,20.30
2018-07-01T18:20:53.270Z,20.20
2018-07-01T18:24:02.958Z,20.20
2018-07-01T18:26:11.925Z,20.10
2018-07-01T18:29:02.567Z,20.10
2018-07-01T18:31:32.751Z,20.00
2018-07-01T18:34:10.860Z,19.90
2018-07-01T18:36:47.573Z,19.90
2018-07-01T18:39:24.321Z,19.80
2018-07-01T18:42:03.166Z,19.80
2018-07-01T18:44:40.277Z,19.70
2018-07-01T18:47:19.098Z,19.80
2018-07-01T18:50:00.416Z,19.80
2018-07-01T18:52:36.840Z,19.70
2018-07-01T18:55:15.153Z,19.60
2018-07-01T18:57:55.903Z,19.60
2018-07-01T19:00:36.267Z,19.50
2018-07-01T19:03:17.965Z,19.40
2018-07-01T19:05:57.660Z,19.40
2018-07-01T19:08:37.012Z,19.20
2018-07-01T19:11:16.245Z,19.20
2018-07-01T19:13:53.601Z,19.20
2018-07-01T19:16:33.138Z,19.00
2018-07-01T19:19:11.755Z,19.00
2018-07-01T19:21:48.180Z,18.80
2018-07-01T19:24:25.208Z,18.80
2018-07-01T19:27:03.297Z,18.60
2018-07-01T19:29:39.939Z,18.50
2018-07-01T19:32:19.081Z,18.60
2018-07-01T19:34:55.924Z,18.60
2018-07-01T19:37:32.893Z,18.50
2018-07-01T19:40:12.955Z,18.30
2018-07-01T19:42:50.913Z,18.20
2018-07-01T19:45:28.915Z,18.00
2018-07-01T19:48:07.137Z,18.00
2018-07-01T19:50:44.144Z,17.90
2018-07-01T19:56:08.701Z,17.70
2018-07-01T19:58:50.761Z,17.60
2018-07-01T20:01:27.756Z,17.50
2018-07-01T20:04:04.046Z,17.40
2018-07-01T20:06:40.489Z,17.30
2018-07-01T20:09:18.164Z,17.20
2018-07-01T20:11:55.710Z,17.10
2018-07-01T20:14:32.442Z,17.00
2018-07-01T20:17:08.860Z,16.90
2018-07-01T20:19:47.889Z,16.90
2018-07-01T20:25:02.324Z,16.70
2018-07-01T20:27:43.307Z,16.70
2018-07-01T20:30:20.846Z,16.60
2018-07-01T20:32:59.941Z,16.50
2018-07-01T20:35:37.417Z,16.40
2018-07-01T20:38:15.377Z,16.40
2018-07-01T20:40:51.404Z,16.40
2018-07-01T20:43:27.902Z,16.30
2018-07-01T20:46:07.225Z,16.30
2018-07-01T20:48:44.973Z,16.10
2018-07-01T20:51:23.393Z,16.10
2018-07-01T20:54:03.132Z,16.10
2018-07-01T20:56:39.912Z,16.10
2018-07-01T20:59:15.963Z,16.00
2018-07-01T21:01:53.896Z,16.00
2018-07-01T21:04:30.400Z,15.90
2018-07-01T21:07:07.437Z,15.80
2018-07-01T21:09:45.787Z,15.80
2018-07-01T21:12:21.885Z,15.70
2018-07-01T21:15:00.076Z,15.60
2018-07-01T21:17:37.338Z,15.40
2018-07-01T21:22:52.827Z,15.30
2018-07-01T21:25:31.218Z,15.30
2018-07-01T21:28:08.437Z,15.30
2018-07-01T21:30:44.351Z,15.30
2018-07-01T21:33:21.412Z,15.30
2018-07-01T21:35:57.617Z,15.30
2018-07-01T21:38:34.909Z,15.20
2018-07-01T21:41:13.861Z,15.20
2018-07-01T21:43:51.104Z,15.20
2018-07-01T21:46:28.055Z,15.10
2018-07-01T21:49:07.247Z,15.10
2018-07-01T21:51:43.629Z,15.10
2018-07-01T21:54:21.491Z,15.00
2018-07-01T21:56:58.983Z,14.90
2018-07-01T21:59:36.124Z,14.80
2018-07-01T22:02:13.494Z,14.80
2018-07-01T22:04:49.857Z,14.70
2018-07-01T22:07:27.785Z,14.70
2018-07-01T22:10:03.997Z,14.60
2018-07-01T22:12:52.538Z,14.60
2018-07-01T22:15:46.069Z,14.50
2018-07-01T22:18:22.959Z,14.50
2018-07-01T22:20:59.285Z,14.40
2018-07-01T22:23:36.568Z,14.30
2018-07-01T22:26:14.747Z,14.30
2018-07-01T22:28:52.143Z,14.10
2018-07-01T22:31:30.400Z,14.10
2018-07-01T22:34:07.557Z,14.10
2018-07-01T22:36:45.648Z,14.20
2018-07-01T22:39:24.720Z,14.10
2018-07-01T22:42:02.604Z,14.10
2018-07-01T22:47:21.595Z,14.10
2018-07-01T22:49:59.769Z,14.10
2018-07-01T22:55:14.236Z,13.90
2018-07-01T22:57:52.364Z,13.90
2018-07-01T23:00:29.093Z,13.80
2018-07-01T23:03:16.175Z,13.70
2018-07-01T23:05:53.486Z,13.50
2018-07-01T23:08:30.315Z,13.50
2018-07-01T23:11:07.457Z,13.50
2018-07-01T23:13:44.739Z,13.50
2018-07-01T23:18:59.477Z,13.60
2018-07-01T23:21:37.158Z,13.50
2018-07-01T23:24:15.056Z,13.40
2018-07-01T23:26:54.076Z,13.30
2018-07-01T23:29:32.856Z,13.30
2018-07-01T23:32:09.787Z,13.30
2018-07-01T23:34:47.848Z,13.20
2018-07-01T23:37:25.351Z,13.20
2018-07-01T23:42:42.243Z,13.00
2018-07-01T23:45:19.491Z,13.00
2018-07-01T23:47:55.838Z,12.90
2018-07-01T23:50:32.817Z,12.90
2018-07-01T23:53:11.662Z,12.90
2018-07-01T23:58:26.487Z,12.80
